Time;durP1;ratioP1;P1;durP2;ratioP2;P2;SDS_P1;SDS_P2;PMS_P1;PMS_P2;Temp;Humidity;BMP_temperature;BMP_pressure;BME280_temperature;BME280_humidity;BME280_pressure;Samples;Min_cycle;Max_cycle;Signal;HPM_P1;HPM_P2
2020/12/31 00:00:02;;;;;;;69.58;29.37;;;;;;;2.30;84.96;98047.05;2188609;81;21277;-65
2020/12/31 00:03:06;;;;;;;73.30;30.20;;;;;;;2.17;85.37;98050.57;2188269;81;21079;-65
2020/12/31 00:06:08;;;;;;;69.22;28.80;;;;;;;2.06;85.51;98051.44;2188048;81;21166;-66
2020/12/31 00:09:11;;;;;;;71.15;29.70;;;;;;;1.96;85.49;98052.23;2188285;81;21716;-65
2020/12/31 00:12:13;;;;;;;69.27;30.60;;;;;;;1.99;86.18;98053.87;2188304;81;21261;-67
2020/12/31 00:15:17;;;;;;;71.15;29.05;;;;;;;2.00;85.64;98054.27;2186467;81;21649;-65
2020/12/31 00:18:19;;;;;;;70.87;29.67;;;;;;;2.03;85.73;98054.15;2161103;82;21253;-65
2020/12/31 00:21:21;;;;;;;73.70;31.07;;;;;;;2.08;85.87;98056.95;2161668;82;21278;-64
2020/12/31 00:24:23;;;;;;;58.92;25.00;;;;;;;2.15;85.83;98058.83;2161371;82;21285;-65
2020/12/31 00:27:26;;;;;;;60.92;24.85;;;;;;;2.02;85.23;98053.28;2161631;82;21729;-67
2020/12/31 00:30:28;;;;;;;60.00;24.85;;;;;;;1.73;85.54;98043.60;2161209;82;21127;-65
2020/12/31 00:33:30;;;;;;;59.60;25.02;;;;;;;1.74;86.12;98047.05;2161533;82;21725;-64
2020/12/31 00:36:33;;;;;;;57.78;24.87;;;;;;;1.79;86.13;98048.16;2161219;82;21104;-64
2020/12/31 00:39:35;;;;;;;50.78;21.00;;;;;;;1.71;86.50;98051.88;2161580;82;21309;-64
2020/12/31 00:42:38;;;;;;;49.40;21.55;;;;;;;1.55;86.39;98054.20;2161061;82;21638;-65
2020/12/31 00:45:40;;;;;;;49.65;20.20;;;;;;;1.35;86.56;98056.21;2161430;82;21146;-64
2020/12/31 00:48:42;;;;;;;48.30;19.67;;;;;;;1.17;86.88;98048.65;2161472;82;21721;-65
2020/12/31 00:51:44;;;;;;;52.23;19.55;;;;;;;1.06;87.08;98058.51;2161161;82;21159;-64
2020/12/31 00:54:47;;;;;;;44.05;18.02;;;;;;;0.87;87.07;98055.72;2161209;82;21123;-64
2020/12/31 00:57:49;;;;;;;50.10;20.88;;;;;;;0.77;87.80;98057.77;2161623;82;21285;-70
2020/12/31 01:00:51;;;;;;;49.75;18.23;;;;;;;0.68;87.76;98066.66;2161376;82;21725;-65
2020/12/31 01:03:53;;;;;;;;;;;;;;;0.63;88.01;98065.13;2163804;82;21690;-67
2020/12/31 01:06:55;;;;;;;45.12;18.92;;;;;;;0.63;87.84;98066.42;2161274;82;20174;-65
2020/12/31 01:09:58;;;;;;;43.78;18.07;;;;;;;0.61;88.43;98069.52;2161182;82;21269;-65
2020/12/31 01:13:00;;;;;;;42.43;17.57;;;;;;;0.54;88.08;98070.14;2161602;82;21285;-65
2020/12/31 01:16:02;;;;;;;41.88;18.60;;;;;;;0.46;88.30;98074.28;2161126;81;21158;-65
2020/12/31 01:19:04;;;;;;;46.95;17.45;;;;;;;0.39;88.43;98078.37;2161536;82;21282;-65
2020/12/31 01:22:06;;;;;;;51.40;20.27;;;;;;;0.37;88.41;98081.45;2161107;82;21128;-66
2020/12/31 01:25:09;;;;;;;55.50;21.85;;;;;;;0.37;88.42;98091.78;2161013;82;21603;-64
2020/12/31 01:28:11;;;;;;;51.42;20.57;;;;;;;0.49;88.65;98090.95;2161272;82;21297;-65
2020/12/31 01:31:13;;;;;;;48.90;18.42;;;;;;;0.68;88.40;98090.36;2161640;82;21282;-65
2020/12/31 01:34:15;;;;;;;44.13;18.52;;;;;;;0.77;87.87;98087.45;2140043;82;21298;-64
2020/12/31 01:37:17;;;;;;;45.58;18.15;;;;;;;0.77;87.46;98086.63;2161249;82;21326;-66
2020/12/31 01:40:20;;;;;;;49.25;18.90;;;;;;;0.76;87.45;98088.80;2161609;82;21265;-65
2020/12/31 01:43:22;;;;;;;47.83;18.42;;;;;;;0.69;87.38;98091.59;2161244;82;21575;-66
2020/12/31 01:46:24;;;;;;;47.25;16.93;;;;;;;0.59;87.29;98091.92;2161563;82;21293;-65
2020/12/31 01:49:26;;;;;;;43.63;18.60;;;;;;;0.62;87.56;98087.98;2161371;82;21290;-64
2020/12/31 01:52:28;;;;;;;45.75;16.82;;;;;;;0.71;87.46;98086.84;2161295;82;21710;-64
2020/12/31 01:55:31;;;;;;;45.35;17.67;;;;;;;0.81;87.12;98089.05;2161144;82;21131;-64
2020/12/31 01:58:33;;;;;;;48.17;19.10;;;;;;;0.82;86.85;98088.16;2161621;82;21146;-64
2020/12/31 02:01:35;;;;;;;49.67;18.75;;;;;;;0.86;86.79;98094.05;2161363;82;21792;-64
2020/12/31 02:04:37;;;;;;;49.83;17.67;;;;;;;0.72;86.49;98092.38;2140047;82;21288;-64
2020/12/31 02:07:39;;;;;;;52.17;19.67;;;;;;;0.47;86.75;98090.59;2161288;82;21722;-66
2020/12/31 02:10:41;;;;;;;51.23;19.52;;;;;;;0.35;87.34;98094.41;2161125;82;21147;-71
2020/12/31 02:13:44;;;;;;;52.20;20.37;;;;;;;0.39;87.56;98093.42;2161327;82;21709;-65
2020/12/31 02:16:46;;;;;;;52.20;21.12;;;;;;;0.51;87.33;98096.89;2167525;81;21127;-68
2020/12/31 02:19:48;;;;;;;53.78;20.50;;;;;;;0.68;87.40;98101.97;2178724;82;21301;-66
2020/12/31 02:22:50;;;;;;;48.48;18.60;;;;;;;0.82;87.21;98099.78;2178506;82;21261;-65
2020/12/31 02:25:53;;;;;;;51.42;19.17;;;;;;;0.95;86.78;98112.27;2178797;82;21606;-69
2020/12/31 02:28:55;;;;;;;50.90;20.27;;;;;;;1.08;86.75;98109.69;2178753;82;21618;-65
2020/12/31 02:31:57;;;;;;;49.03;20.27;;;;;;;1.23;86.53;98108.30;2178981;82;21103;-69
2020/12/31 02:34:59;;;;;;;47.88;19.48;;;;;;;1.37;85.88;98103.95;2178503;82;21288;-67
2020/12/31 02:38:01;;;;;;;53.13;19.87;;;;;;;1.36;85.63;98103.55;2178756;82;21297;-70
2020/12/31 02:41:04;;;;;;;44.80;17.75;;;;;;;1.34;85.26;98111.36;2178960;82;21174;-65
2020/12/31 02:44:06;;;;;;;46.20;18.42;;;;;;;1.35;85.24;98123.83;2178622;82;22337;-66
2020/12/31 02:47:08;;;;;;;48.28;18.65;;;;;;;1.36;85.22;98125.06;2178458;82;21268;-65
2020/12/31 02:50:10;;;;;;;48.85;19.65;;;;;;;1.30;84.73;98128.33;2178631;82;21728;-65
2020/12/31 02:53:12;;;;;;;50.67;20.12;;;;;;;1.23;85.08;98135.89;2178448;82;21245;-64
2020/12/31 02:56:14;;;;;;;45.78;17.70;;;;;;;1.20;84.99;98138.12;2178520;82;21276;-65
2020/12/31 02:59:17;;;;;;;47.62;18.98;;;;;;;0.96;84.41;98134.63;2178748;82;21293;-65
2020/12/31 03:02:19;;;;;;;50.98;18.80;;;;;;;0.84;84.91;98135.42;2178464;82;21308;-64
2020/12/31 03:05:21;;;;;;;49.08;19.45;;;;;;;0.63;84.94;98133.10;2178729;82;21269;-65
2020/12/31 03:08:23;;;;;;;49.05;19.30;;;;;;;0.48;85.34;98136.98;2178450;82;21285;-64
2020/12/31 03:11:25;;;;;;;52.58;20.68;;;;;;;0.33;85.71;98137.03;2178617;82;21779;-65
2020/12/31 03:14:27;;;;;;;;;;;;;;;0.30;86.25;98128.09;2180901;82;21150;-64
2020/12/31 03:17:30;;;;;;;49.03;19.40;;;;;;;0.20;86.20;98142.14;2169557;82;20242;-64
2020/12/31 03:20:32;;;;;;;51.65;20.72;;;;;;;0.05;86.47;98144.73;2161088;82;21297;-67
2020/12/31 03:23:34;;;;;;;48.70;19.50;;;;;;;-0.02;86.71;98138.91;2161038;82;21139;-65
2020/12/31 03:26:36;;;;;;;53.50;20.65;;;;;;;0.00;86.93;98144.05;2161263;82;21313;-64
2020/12/31 03:29:38;;;;;;;52.83;21.00;;;;;;;-0.01;87.00;98144.47;2161538;82;21285;-66
2020/12/31 03:32:40;;;;;;;46.80;18.45;;;;;;;0.01;86.81;98148.29;2161149;82;21162;-64
2020/12/31 03:35:43;;;;;;;;;;;;;;;0.04;86.98;98149.94;2163513;82;21139;-67
2020/12/31 03:38:45;;;;;;;53.73;21.47;;;;;;;-0.02;86.85;98157.41;2161638;82;20265;-69
2020/12/31 03:41:48;;;;;;;61.18;23.95;;;;;;;0.02;87.27;98156.44;2161150;82;21622;-65
2020/12/31 03:44:50;;;;;;;59.85;22.93;;;;;;;0.21;87.31;98158.48;2161170;82;21143;-65
2020/12/31 03:47:53;;;;;;;55.23;23.00;;;;;;;0.47;87.42;98164.13;2161323;82;21737;-66
2020/12/31 03:50:55;;;;;;;53.80;21.55;;;;;;;0.63;86.54;98167.95;2161248;82;21294;-67
2020/12/31 03:53:57;;;;;;;56.73;23.25;;;;;;;0.64;86.05;98171.36;2161350;82;21579;-65
2020/12/31 03:56:59;;;;;;;52.67;21.85;;;;;;;0.68;86.05;98176.38;2162212;82;21269;-67
2020/12/31 04:00:02;;;;;;;54.80;22.25;;;;;;;0.81;86.26;98172.13;2161343;82;21706;-67
2020/12/31 04:03:04;;;;;;;53.13;21.02;;;;;;;0.91;85.43;98167.52;2161192;82;21286;-65
2020/12/31 04:06:06;;;;;;;53.33;20.92;;;;;;;0.86;85.34;98174.09;2161650;82;21286;-66
2020/12/31 04:09:08;;;;;;;52.43;21.90;;;;;;;0.89;85.22;98178.33;2161326;82;21293;-67
2020/12/31 04:12:10;;;;;;;50.33;20.50;;;;;;;0.96;85.06;98182.40;2161665;82;21300;-66
2020/12/31 04:15:12;;;;;;;57.20;22.27;;;;;;;0.96;84.71;98179.39;2161426;82;21698;-65
2020/12/31 04:18:14;;;;;;;47.53;20.17;;;;;;;0.93;84.57;98176.88;2161345;82;21301;-65
2020/12/31 04:21:16;;;;;;;60.78;23.40;;;;;;;0.98;84.43;98175.00;2161668;82;21293;-66
2020/12/31 04:24:18;;;;;;;47.98;19.10;;;;;;;0.95;84.36;98176.40;2161293;82;21277;-65
2020/12/31 04:27:21;;;;;;;48.45;19.50;;;;;;;0.95;84.52;98172.95;2161549;82;21330;-65
2020/12/31 04:30:23;;;;;;;48.90;20.45;;;;;;;1.06;83.89;98180.36;2161502;82;21265;-65
2020/12/31 04:33:26;;;;;;;47.03;19.17;;;;;;;0.95;84.17;98177.69;2161287;82;21166;-64
2020/12/31 04:36:28;;;;;;;49.98;18.60;;;;;;;0.95;83.69;98170.38;2161401;82;21292;-66
2020/12/31 04:39:30;;;;;;;51.45;19.55;;;;;;;0.64;83.14;98173.48;2161219;82;21095;-65
2020/12/31 04:42:32;;;;;;;49.10;19.07;;;;;;;0.59;84.25;98163.77;2161644;82;21689;-65
2020/12/31 04:45:34;;;;;;;50.40;20.08;;;;;;;0.65;84.18;98170.48;2161458;82;21329;-65
2020/12/31 04:48:36;;;;;;;49.80;19.17;;;;;;;0.68;84.14;98178.95;2161635;82;21289;-64
2020/12/31 04:51:39;;;;;;;47.20;19.60;;;;;;;0.58;83.71;98179.30;2161432;82;21286;-65
2020/12/31 04:54:41;;;;;;;;;;;;;;;0.61;84.27;98182.62;2163712;82;21262;-64
2020/12/31 04:57:43;;;;;;;51.20;21.68;;;;;;;0.73;83.95;98193.46;2161811;82;20242;-65
2020/12/31 05:00:45;;;;;;;53.95;22.27;;;;;;;0.71;83.81;98199.12;2161203;82;21163;-65
2020/12/31 05:03:47;;;;;;;50.55;21.00;;;;;;;0.80;83.80;98203.98;2161197;82;21761;-66
2020/12/31 05:06:50;;;;;;;50.80;20.95;;;;;;;0.74;83.58;98205.48;2161122;82;21119;-65
2020/12/31 05:09:52;;;;;;;47.90;18.87;;;;;;;0.80;83.91;98210.45;2161287;82;21734;-66
2020/12/31 05:12:54;;;;;;;43.58;18.77;;;;;;;0.84;83.19;98206.42;2161135;82;21143;-64
2020/12/31 05:15:56;;;;;;;49.83;19.42;;;;;;;0.69;83.10;98203.89;2161377;82;21718;-66
2020/12/31 05:18:59;;;;;;;45.80;18.02;;;;;;;0.66;83.21;98212.16;2175870;81;21175;-65
2020/12/31 05:22:01;;;;;;;48.63;20.80;;;;;;;0.56;83.19;98212.91;2178611;82;21292;-65
2020/12/31 05:25:03;;;;;;;48.30;20.10;;;;;;;0.54;83.41;98214.67;2179054;82;21139;-65
2020/12/31 05:28:05;;;;;;;48.40;19.70;;;;;;;0.57;83.41;98227.94;2178674;82;21760;-65
2020/12/31 05:31:07;;;;;;;51.30;19.80;;;;;;;0.67;83.92;98222.43;2178505;82;21272;-65
2020/12/31 05:34:09;;;;;;;50.00;21.48;;;;;;;0.79;83.39;98219.08;2179017;82;21111;-65
2020/12/31 05:37:11;;;;;;;49.58;19.52;;;;;;;0.73;83.19;98216.70;2179026;82;21720;-65
2020/12/31 05:40:13;;;;;;;49.38;20.12;;;;;;;0.76;83.14;98216.59;2178535;82;21262;-64
2020/12/31 05:43:16;;;;;;;44.75;18.27;;;;;;;0.80;83.44;98215.61;2178535;82;21300;-65
2020/12/31 05:46:18;;;;;;;46.10;19.42;;;;;;;0.79;82.84;98223.81;2178759;82;21317;-64
2020/12/31 05:49:20;;;;;;;47.43;19.40;;;;;;;0.76;83.02;98223.05;2179036;82;21142;-65
2020/12/31 05:52:23;;;;;;;46.85;19.48;;;;;;;0.75;83.00;98222.64;2178880;82;21289;-65
2020/12/31 05:55:25;;;;;;;51.08;20.00;;;;;;;0.73;83.21;98217.98;2178891;82;21158;-64
2020/12/31 05:58:27;;;;;;;46.77;19.42;;;;;;;0.75;82.92;98206.72;2178776;82;21146;-64
2020/12/31 06:01:29;;;;;;;48.35;20.08;;;;;;;0.78;82.90;98205.79;2178591;82;21728;-65
2020/12/31 06:04:31;;;;;;;45.15;18.98;;;;;;;0.74;83.35;98211.48;2178524;82;21294;-64
2020/12/31 06:07:33;;;;;;;48.50;20.08;;;;;;;0.76;83.09;98213.59;2178605;82;21717;-64
2020/12/31 06:10:36;;;;;;;46.45;18.20;;;;;;;0.74;83.15;98219.23;2178886;82;21154;-65
2020/12/31 06:13:38;;;;;;;48.42;20.12;;;;;;;0.57;82.92;98218.44;2178627;82;21716;-65
2020/12/31 06:16:40;;;;;;;51.15;20.23;;;;;;;0.41;83.21;98217.23;2178922;82;21154;-64
2020/12/31 06:19:43;;;;;;;48.83;21.23;;;;;;;0.45;83.69;98219.66;2178641;82;21300;-64
2020/12/31 06:22:45;;;;;;;51.75;20.62;;;;;;;0.44;83.64;98210.22;2178498;82;21281;-65
2020/12/31 06:25:47;;;;;;;54.77;21.90;;;;;;;0.50;83.79;98202.31;2178474;82;21732;-65
2020/12/31 06:28:49;;;;;;;54.83;23.52;;;;;;;0.53;83.65;98209.09;2178501;82;21289;-65
2020/12/31 06:31:51;;;;;;;50.43;21.55;;;;;;;0.54;83.68;98216.41;2178973;82;21138;-64
2020/12/31 06:34:53;;;;;;;57.75;21.97;;;;;;;0.57;83.60;98214.57;2178639;82;21744;-64
2020/12/31 06:37:55;;;;;;;49.73;20.45;;;;;;;0.62;83.63;98217.03;2178855;82;21150;-66
2020/12/31 06:40:57;;;;;;;59.88;24.40;;;;;;;0.68;83.77;98221.55;2178591;82;21733;-64
2020/12/31 06:44:00;;;;;;;53.42;22.58;;;;;;;0.79;83.59;98222.52;2178671;82;21277;-65
2020/12/31 06:47:02;;;;;;;55.00;23.47;;;;;;;0.62;83.18;98223.03;2178944;82;21295;-64
2020/12/31 06:50:04;;;;;;;48.52;20.60;;;;;;;0.56;83.36;98223.23;2178864;82;21538;-65
2020/12/31 06:53:06;;;;;;;53.40;22.30;;;;;;;0.68;83.66;98220.25;2178802;82;21296;-64
2020/12/31 06:56:09;;;;;;;49.50;20.55;;;;;;;0.73;83.27;98225.73;2178498;82;21257;-64
2020/12/31 06:59:12;;;;;;;50.15;21.23;;;;;;;0.66;83.08;98223.34;2178848;82;21122;-64
2020/12/31 07:02:14;;;;;;;46.95;20.12;;;;;;;0.65;83.24;98223.39;2178736;82;21297;-64
2020/12/31 07:05:16;;;;;;;49.10;20.95;;;;;;;0.65;83.29;98232.42;2178962;82;21154;-68
2020/12/31 07:08:18;;;;;;;51.45;21.10;;;;;;;0.69;83.43;98227.12;2178580;82;21728;-65
2020/12/31 07:11:20;;;;;;;49.45;20.45;;;;;;;0.82;83.24;98228.02;2178966;82;21150;-65
2020/12/31 07:14:22;;;;;;;45.10;19.80;;;;;;;0.85;83.18;98226.66;2178598;82;21293;-65
2020/12/31 07:17:25;;;;;;;44.85;18.67;;;;;;;0.85;82.87;98227.48;2178854;81;21167;-65
2020/12/31 07:20:27;;;;;;;47.60;19.15;;;;;;;0.90;82.74;98234.25;2178781;82;21725;-65
2020/12/31 07:23:29;;;;;;;47.88;20.35;;;;;;;0.84;82.47;98237.41;2178689;82;21257;-65
2020/12/31 07:26:31;;;;;;;52.27;21.95;;;;;;;0.92;82.82;98236.33;2179149;82;21305;-65
2020/12/31 07:29:33;;;;;;;46.83;19.02;;;;;;;0.94;82.69;98234.09;2178954;82;21294;-68
2020/12/31 07:32:35;;;;;;;51.80;20.80;;;;;;;1.00;82.66;98239.52;2150763;82;21319;-65
2020/12/31 07:35:37;;;;;;;49.93;22.25;;;;;;;0.98;82.68;98242.16;2178887;82;21146;-66
2020/12/31 07:38:40;;;;;;;50.83;21.37;;;;;;;1.07;82.75;98227.27;2178627;82;21262;-68
2020/12/31 07:41:42;;;;;;;53.35;22.07;;;;;;;1.32;82.66;98234.62;2178654;82;21273;-65
2020/12/31 07:44:44;;;;;;;53.15;21.35;;;;;;;1.33;82.15;98234.16;2179130;82;21284;-65
2020/12/31 07:47:47;;;;;;;48.73;20.40;;;;;;;1.38;82.10;98242.16;2178798;82;21745;-66
2020/12/31 07:50:49;;;;;;;44.65;18.32;;;;;;;1.33;82.01;98250.50;2179117;82;21182;-65
2020/12/31 07:53:51;;;;;;;45.25;18.25;;;;;;;1.47;81.41;98237.12;2178624;82;21277;-66
2020/12/31 07:56:53;;;;;;;42.38;18.82;;;;;;;1.47;81.41;98237.12;2178779;82;21710;-65
2020/12/31 07:59:56;;;;;;;46.08;20.23;;;;;;;1.46;81.51;98245.77;2178909;82;21717;-66
2020/12/31 08:02:58;;;;;;;49.50;20.00;;;;;;;1.62;81.85;98243.97;2178610;82;21273;-67
2020/12/31 08:06:00;;;;;;;45.60;19.57;;;;;;;1.71;81.10;98247.09;2178662;82;21285;-66
2020/12/31 08:09:02;;;;;;;49.33;21.37;;;;;;;1.75;81.43;98254.28;2178630;82;21296;-65
2020/12/31 08:12:04;;;;;;;47.75;21.20;;;;;;;1.85;81.05;98250.51;2178879;82;21120;-65
2020/12/31 08:15:07;;;;;;;54.95;21.95;;;;;;;1.85;80.60;98242.75;2178996;82;21158;-65
2020/12/31 08:18:09;;;;;;;51.77;21.73;;;;;;;1.70;80.16;98247.15;2178749;81;21725;-66
2020/12/31 08:21:11;;;;;;;52.60;21.25;;;;;;;1.49;80.19;98252.59;2178637;82;21256;-65
2020/12/31 08:24:13;;;;;;;53.87;23.47;;;;;;;1.38;80.63;98252.50;2150798;82;21269;-72
2020/12/31 08:27:15;;;;;;;49.93;20.45;;;;;;;1.48;80.86;98249.59;2178870;82;21162;-70
2020/12/31 08:30:17;;;;;;;47.90;20.37;;;;;;;1.45;80.83;98242.81;2179103;82;21126;-66
2020/12/31 08:33:19;;;;;;;47.90;20.70;;;;;;;1.35;80.74;98240.97;2178719;82;21276;-65
2020/12/31 08:36:22;;;;;;;48.33;20.23;;;;;;;1.28;80.77;98241.20;2178901;82;21135;-65
2020/12/31 08:39:24;;;;;;;46.08;19.70;;;;;;;1.41;81.29;98233.47;2178844;82;21264;-65
2020/12/31 08:42:26;;;;;;;48.70;19.27;;;;;;;1.51;81.00;98237.89;2178541;82;21249;-65
2020/12/31 08:45:28;;;;;;;47.95;20.32;;;;;;;1.68;81.00;98239.45;2178651;82;21689;-65
2020/12/31 08:48:30;;;;;;;48.45;19.87;;;;;;;1.62;80.44;98242.22;2178581;82;21312;-65
2020/12/31 08:51:33;;;;;;;;;;;;;;;1.54;80.31;98246.83;2181094;82;21756;-68
2020/12/31 08:54:35;;;;;;;44.67;19.17;;;;;;;1.59;81.24;98247.95;2178727;82;20292;-66
2020/12/31 08:57:37;;;;;;;46.75;18.65;;;;;;;1.57;80.67;98242.84;2178717;82;21111;-66
2020/12/31 09:00:39;;;;;;;46.25;19.00;;;;;;;1.61;81.38;98248.73;2179080;82;21150;-65
2020/12/31 09:03:41;;;;;;;43.35;18.65;;;;;;;1.73;81.19;98258.67;2178827;82;21293;-68
2020/12/31 09:06:44;;;;;;;49.65;20.77;;;;;;;1.95;81.29;98256.17;2178799;82;21289;-66
2020/12/31 09:09:46;;;;;;;44.88;19.50;;;;;;;2.13;81.11;98257.74;2178998;82;21190;-67
2020/12/31 09:12:48;;;;;;;44.33;19.05;;;;;;;2.19;80.60;98257.52;2178543;82;21268;-65
2020/12/31 09:15:52;;;;;;;45.83;19.67;;;;;;;2.11;80.05;98261.65;2178943;82;21146;-65
2020/12/31 09:18:54;;;;;;;49.95;21.40;;;;;;;2.05;80.68;98265.33;2170167;81;21730;-67
2020/12/31 09:21:56;;;;;;;56.92;25.92;;;;;;;2.11;80.86;98267.28;2161172;82;21128;-66
2020/12/31 09:24:59;;;;;;;62.62;26.93;;;;;;;2.15;80.86;98270.16;2161640;82;21292;-66
2020/12/31 09:28:01;;;;;;;61.40;27.07;;;;;;;2.25;81.02;98280.11;2161375;82;21313;-65
2020/12/31 09:31:03;;;;;;;57.75;24.07;;;;;;;2.31;81.11;98282.09;2161167;82;21139;-66
2020/12/31 09:34:05;;;;;;;56.37;22.95;;;;;;;2.41;80.73;98286.91;2161502;82;21285;-65
2020/12/31 09:37:07;;;;;;;53.70;23.32;;;;;;;2.46;80.44;98287.16;2140472;82;21281;-66
2020/12/31 09:40:09;;;;;;;52.05;22.37;;;;;;;2.33;80.19;98282.88;2161157;82;21100;-65
2020/12/31 09:43:12;;;;;;;45.33;20.15;;;;;;;2.28;79.91;98288.22;2161352;82;21282;-66
2020/12/31 09:46:14;;;;;;;53.28;23.55;;;;;;;2.28;80.65;98283.51;2161335;82;21706;-64
2020/12/31 09:49:16;;;;;;;53.75;23.20;;;;;;;2.29;80.69;98275.69;2161462;82;21154;-65
2020/12/31 09:52:18;;;;;;;56.70;24.37;;;;;;;2.38;80.67;98276.63;2161608;82;21147;-66
2020/12/31 09:55:20;;;;;;;67.40;30.10;;;;;;;2.36;80.63;98277.61;2161407;82;21277;-66
2020/12/31 09:58:22;;;;;;;47.88;21.93;;;;;;;2.54;81.18;98274.36;2161608;82;21277;-65
2020/12/31 10:01:24;;;;;;;48.50;21.70;;;;;;;2.68;80.62;98276.87;2161258;82;21713;-65
2020/12/31 10:04:27;;;;;;;50.78;23.05;;;;;;;2.77;80.12;98278.66;2161366;82;21282;-65
2020/12/31 10:07:29;;;;;;;53.52;23.70;;;;;;;2.75;79.98;98276.56;2161208;82;21729;-66
2020/12/31 10:10:31;;;;;;;51.33;22.30;;;;;;;2.76;80.10;98273.55;2161369;82;21297;-65
2020/12/31 10:13:33;;;;;;;47.10;21.20;;;;;;;2.77;80.17;98277.80;2161336;82;21295;-65
2020/12/31 10:16:36;;;;;;;52.00;26.23;;;;;;;2.67;80.00;98271.28;2161120;82;21184;-65
2020/12/31 10:19:38;;;;;;;48.83;22.07;;;;;;;2.67;80.00;98271.28;2171946;82;21285;-66
2020/12/31 10:22:40;;;;;;;52.43;23.35;;;;;;;2.69;80.24;98273.38;2178746;82;21558;-66
2020/12/31 10:25:42;;;;;;;47.15;21.07;;;;;;;2.76;80.25;98266.61;2150700;82;21281;-67
2020/12/31 10:28:45;;;;;;;54.70;24.52;;;;;;;2.76;79.69;98271.78;2178641;82;21657;-65
2020/12/31 10:31:47;;;;;;;59.00;25.68;;;;;;;2.82;80.26;98269.41;2178721;82;21337;-65
2020/12/31 10:34:49;;;;;;;54.33;25.88;;;;;;;2.99;80.18;98258.84;2178504;82;21289;-66
2020/12/31 10:37:51;;;;;;;60.70;26.42;;;;;;;3.03;79.98;98257.38;2179011;82;21166;-66
2020/12/31 10:40:53;;;;;;;61.13;28.10;;;;;;;3.16;79.75;98263.36;2178736;82;21577;-64
2020/12/31 10:43:56;;;;;;;53.92;23.57;;;;;;;3.24;80.09;98253.07;2178490;82;21273;-66
2020/12/31 10:46:58;;;;;;;52.60;24.07;;;;;;;3.34;78.94;98242.34;2178708;82;21741;-65
2020/12/31 10:50:00;;;;;;;55.23;24.63;;;;;;;3.32;78.91;98245.44;2178492;82;21273;-65
2020/12/31 10:53:02;;;;;;;54.38;24.65;;;;;;;3.36;79.20;98236.20;2178596;82;21708;-65
2020/12/31 10:56:04;;;;;;;55.20;25.00;;;;;;;3.50;79.10;98230.42;2178748;82;21261;-65
2020/12/31 10:59:07;;;;;;;55.43;24.77;;;;;;;3.51;78.50;98228.23;2178956;82;21146;-67
2020/12/31 11:02:09;;;;;;;53.30;24.23;;;;;;;3.56;78.36;98226.73;2178637;82;21332;-66
2020/12/31 11:05:11;;;;;;;54.20;22.73;;;;;;;3.56;77.89;98220.25;2178897;82;21162;-65
2020/12/31 11:08:13;;;;;;;53.00;23.02;;;;;;;3.57;78.03;98220.65;2178459;82;21166;-65
2020/12/31 11:11:15;;;;;;;51.98;24.35;;;;;;;3.51;77.51;98220.91;2178753;82;21309;-65
2020/12/31 11:14:17;;;;;;;55.73;24.80;;;;;;;3.19;78.06;98222.63;2178719;82;21142;-66
2020/12/31 11:17:20;;;;;;;56.80;25.17;;;;;;;3.05;78.04;98219.28;2178762;82;21274;-66
2020/12/31 11:20:27;;;;;;;54.25;24.07;;;;;;;2.75;78.11;98206.63;2164478;82;21615;-65
2020/12/31 11:23:29;;;;;;;55.03;24.92;;;;;;;2.66;79.05;98210.03;2161169;82;21572;-65
2020/12/31 11:26:32;;;;;;;57.20;25.92;;;;;;;2.65;78.90;98207.07;2161261;82;21687;-65
2020/12/31 11:29:34;;;;;;;55.95;24.52;;;;;;;2.65;79.61;98210.48;2161055;82;21163;-65
2020/12/31 11:32:36;;;;;;;53.50;23.95;;;;;;;2.83;79.67;98206.78;2161241;82;21693;-65
2020/12/31 11:35:38;;;;;;;55.35;24.40;;;;;;;2.69;79.20;98196.98;2161523;82;21281;-67
2020/12/31 11:38:40;;;;;;;55.20;23.67;;;;;;;2.79;79.66;98202.20;2161074;82;21103;-65
2020/12/31 11:41:43;;;;;;;57.33;24.20;;;;;;;2.87;79.16;98194.11;2161033;82;21151;-64
2020/12/31 11:44:46;;;;;;;58.30;27.22;;;;;;;2.93;79.05;98198.61;2161658;82;21768;-71
2020/12/31 11:47:49;;;;;;;60.38;28.23;;;;;;;3.03;79.41;98199.08;2160908;82;21128;-65
2020/12/31 11:50:52;;;;;;;55.48;25.32;;;;;;;3.05;79.48;98195.97;2161081;82;21104;-66
2020/12/31 11:53:57;;;;;;;61.70;27.40;;;;;;;3.18;79.59;98185.11;2161403;82;21282;-67
2020/12/31 11:56:59;;;;;;;63.83;27.50;;;;;;;3.33;79.08;98181.86;2161003;82;21713;-66
2020/12/31 12:00:01;;;;;;;61.63;27.15;;;;;;;3.31;79.12;98172.48;2161306;82;21273;-66
2020/12/31 12:03:03;;;;;;;58.08;25.05;;;;;;;3.41;78.96;98165.53;2161328;82;21273;-70
2020/12/31 12:06:05;;;;;;;58.30;26.73;;;;;;;3.41;78.69;98162.95;2161681;82;21285;-71
2020/12/31 12:09:07;;;;;;;57.70;24.72;;;;;;;3.33;78.13;98159.83;2161289;82;21285;-66
2020/12/31 12:12:10;;;;;;;54.77;25.27;;;;;;;3.16;78.20;98159.70;2161765;82;21697;-70
2020/12/31 12:15:12;;;;;;;50.45;23.12;;;;;;;3.06;78.79;98160.52;2161266;82;21254;-68
2020/12/31 12:18:14;;;;;;;54.30;25.77;;;;;;;2.98;78.85;98158.25;2161241;82;21266;-68
2020/12/31 12:21:16;;;;;;;49.95;22.77;;;;;;;2.90;79.04;98151.23;2171276;81;21312;-70
2020/12/31 12:24:21;;;;;;;47.13;22.02;;;;;;;2.77;79.02;98158.23;2171505;82;21722;-68
2020/12/31 12:27:23;;;;;;;52.75;22.07;;;;;;;2.68;79.04;98162.46;2171559;82;21575;-67
2020/12/31 12:30:26;;;;;;;49.70;22.48;;;;;;;2.56;79.13;98165.09;2171579;81;21289;-65
2020/12/31 12:33:28;;;;;;;53.35;24.35;;;;;;;2.47;79.85;98157.69;2171241;81;21261;-66
2020/12/31 12:36:30;;;;;;;61.65;25.40;;;;;;;2.55;80.21;98158.21;2171834;81;21154;-66
2020/12/31 12:39:33;;;;;;;71.05;35.33;;;;;;;2.64;80.38;98155.71;2171365;82;21272;-68
2020/12/31 12:42:35;;;;;;;68.70;31.87;;;;;;;2.72;80.61;98156.26;2171598;82;21178;-66
2020/12/31 12:45:38;;;;;;;;;;;;;;;2.85;80.48;98159.67;2173886;82;21749;-65
2020/12/31 12:48:40;;;;;;;49.20;20.60;;;;;;;2.77;79.80;98160.81;2171943;82;20145;-65
2020/12/31 12:51:42;;;;;;;48.02;19.75;;;;;;;2.65;79.72;98162.59;2171323;81;21289;-66
2020/12/31 12:54:44;;;;;;;49.93;20.90;;;;;;;2.42;79.75;98161.73;2171709;81;21590;-65
2020/12/31 12:57:46;;;;;;;44.38;18.92;;;;;;;2.35;79.91;98161.57;2171820;81;21139;-65
2020/12/31 13:00:49;;;;;;;45.55;20.43;;;;;;;2.37;79.94;98158.48;2171465;81;21701;-65
2020/12/31 13:03:51;;;;;;;45.30;19.80;;;;;;;2.36;80.16;98161.97;2171796;81;21134;-65
2020/12/31 13:06:53;;;;;;;46.83;20.10;;;;;;;2.37;80.20;98164.96;2171465;81;21566;-64
2020/12/31 13:09:55;;;;;;;50.48;21.55;;;;;;;2.33;80.07;98158.21;2171344;81;21281;-65
2020/12/31 13:12:57;;;;;;;48.38;19.62;;;;;;;2.18;80.35;98166.55;2171372;82;21602;-66
2020/12/31 13:16:00;;;;;;;44.70;18.32;;;;;;;2.10;80.64;98165.55;2171631;81;21135;-66
2020/12/31 13:19:02;;;;;;;50.48;20.50;;;;;;;2.07;80.76;98163.91;2172194;81;21301;-64
2020/12/31 13:22:04;;;;;;;55.20;24.27;;;;;;;1.95;80.85;98173.41;2178798;82;21712;-67
2020/12/31 13:25:06;;;;;;;45.52;18.98;;;;;;;1.78;81.44;98161.54;2150758;82;21720;-67
2020/12/31 13:28:09;;;;;;;43.98;18.25;;;;;;;1.81;81.66;98166.59;2178552;82;21305;-65
2020/12/31 13:31:11;;;;;;;49.67;19.90;;;;;;;1.85;81.30;98167.75;2179036;82;21190;-64
2020/12/31 13:34:13;;;;;;;43.87;18.32;;;;;;;1.94;81.19;98167.86;2178581;82;21269;-65
2020/12/31 13:37:15;;;;;;;42.65;18.65;;;;;;;1.96;81.07;98168.63;2178794;82;21621;-65
2020/12/31 13:40:17;;;;;;;44.55;18.67;;;;;;;1.91;80.90;98171.83;2178571;82;21269;-64
2020/12/31 13:43:20;;;;;;;;;;;;;;;1.94;81.59;98164.41;2181159;82;21586;-66
2020/12/31 13:46:22;;;;;;;46.53;21.48;;;;;;;2.08;81.46;98166.91;2178912;82;20277;-64
2020/12/31 13:49:24;;;;;;;44.98;19.70;;;;;;;2.11;81.34;98167.22;2178580;82;21277;-65
2020/12/31 13:52:27;;;;;;;45.58;19.32;;;;;;;2.19;81.21;98166.95;2178541;82;21277;-64
2020/12/31 13:55:29;;;;;;;50.28;20.48;;;;;;;2.20;81.16;98164.77;2178816;82;21302;-65
2020/12/31 13:58:31;;;;;;;48.95;21.05;;;;;;;2.29;80.88;98163.57;2178797;82;21290;-65
2020/12/31 14:01:33;;;;;;;58.50;22.77;;;;;;;2.32;81.23;98173.34;2178797;82;21265;-64
2020/12/31 14:04:35;;;;;;;50.67;20.60;;;;;;;2.29;80.51;98170.88;2178800;82;21309;-65
2020/12/31 14:07:37;;;;;;;53.90;21.93;;;;;;;2.24;80.67;98174.07;2178979;82;21297;-65